HISTORICAL SENSOR DATA

Sensor Data Report

DB LIVE
CURRENT TIME--:--:--
DEVICE NETWORK Gateway Status
13 ESP · realtime ~1s · history 60s
Weather WS-MOD-01
ONLINE
Actuator ACT-MOD-01
OFFLINE
Mainboard L3 MB-L3-01
ONLINE
Mainboard L5 MB-L5-01
ONLINE
Remote AC AC-REMOTE-01
OFFLINE
PZEM L3-01 PWR-L3-01
OFFLINE
PZEM L3-02 PWR-L3-02
OFFLINE
PZEM L3-03 PWR-L3-03
OFFLINE
PZEM L3-04 PWR-L3-04
OFFLINE
PZEM L5-01 PWR-L5-01
ONLINE
PZEM L5-02 PWR-L5-02
OFFLINE
PZEM L5-03 PWR-L5-03
OFFLINE
PZEM L5-04 PWR-L5-04
OFFLINE
REPORT FILTER

Periode & Sensor

DATABASE HISTORY
RESET
QUICK RANGE Hari ini 7 hari 30 hari
PERIODE08 Aug 2026sampai 06 Sep 2026
TOTAL DATA44,970sensor readings
MINIMUM-0.50sesuai filter
AVERAGE91.89sesuai filter
MAXIMUM32,564.20sesuai filter
REPORT RESULT

Data Sensor

08/08/2026 — 06/09/2026 EXPORT CSV
NOTANGGALWAKTUDEVICECHANNELSENSORVALUEUNIT
2101 06/09/2026 14:13:00 MB-L3-01Mainboard Lantai 3 L3-AI-04 Analog Input 4 3.12 V
2102 06/09/2026 14:13:00 MB-L3-01Mainboard Lantai 3 L3-ST-02 Surface Temperature 2 28.70 °C
2103 06/09/2026 14:13:00 MB-L5-01Mainboard Lantai 5 L5-AI-04 Analog Input 4 3.05 V
2104 06/09/2026 14:13:00 MB-L5-01Mainboard Lantai 5 L5-SHT-02-RH SHT20 2 Humidity 33.70 %RH
2105 06/09/2026 14:13:00 MB-L5-01Mainboard Lantai 5 L5-HFT-01 Heat Flow Temperature 1 40.60 °C
2106 06/09/2026 14:13:00 MB-L5-01Mainboard Lantai 5 L5-AI-02 Analog Input 2 3.05 V
2107 06/09/2026 14:13:00 MB-L5-01Mainboard Lantai 5 L5-SHT-03-T SHT20 3 Temperature 32.60 °C
2108 06/09/2026 14:13:00 MB-L3-01Mainboard Lantai 3 L3-BGT-02 Black Globe Temperature 2 28.90 °C
2109 06/09/2026 14:13:00 MB-L3-01Mainboard Lantai 3 L3-AI-03 Analog Input 3 3.12 V
2110 06/09/2026 14:13:00 MB-L5-01Mainboard Lantai 5 L5-SHT-03-RH SHT20 3 Humidity 33.30 %RH
2111 06/09/2026 14:13:00 MB-L5-01Mainboard Lantai 5 L5-ST-01 Surface Temperature 1 34.00 °C
2112 06/09/2026 14:13:00 MB-L5-01Mainboard Lantai 5 L5-BGT-02 Black Globe Temperature 2 29.60 °C
2113 06/09/2026 14:13:00 MB-L3-01Mainboard Lantai 3 L3-ST-01 Surface Temperature 1 28.40 °C
2114 06/09/2026 14:13:00 MB-L5-01Mainboard Lantai 5 L5-LUX-06 Illuminance / LUX 6 1,357.90 lux
2115 06/09/2026 14:13:00 MB-L3-01Mainboard Lantai 3 L3-AI-02 Analog Input 2 3.12 V
2116 06/09/2026 14:13:00 MB-L3-01Mainboard Lantai 3 L3-BGT-01 Black Globe Temperature 1 28.40 °C
2117 06/09/2026 14:13:00 MB-L5-01Mainboard Lantai 5 L5-AI-05 Analog Input 5 3.05 V
2118 06/09/2026 14:13:00 MB-L5-01Mainboard Lantai 5 L5-HFT-02 Heat Flow Temperature 2 29.90 °C
2119 06/09/2026 14:13:00 MB-L5-01Mainboard Lantai 5 L5-LUX-02 Illuminance / LUX 2 3,022.80 lux
2120 06/09/2026 14:13:00 MB-L5-01Mainboard Lantai 5 L5-LUX-03 Illuminance / LUX 3 1,237.00 lux
2121 06/09/2026 14:13:00 MB-L3-01Mainboard Lantai 3 L3-AI-01 Analog Input 1 3.12 V
2122 06/09/2026 14:13:00 MB-L5-01Mainboard Lantai 5 L5-RAD-01 Radiation 1 6.00 W/m²
2123 06/09/2026 14:13:00 MB-L5-01Mainboard Lantai 5 L5-AI-03 Analog Input 3 3.05 V
2124 06/09/2026 14:13:00 MB-L5-01Mainboard Lantai 5 L5-LUX-05 Illuminance / LUX 5 28,247.30 lux
2125 06/09/2026 14:13:00 MB-L5-01Mainboard Lantai 5 L5-LUX-04 Illuminance / LUX 4 905.80 lux
2126 06/09/2026 14:13:00 MB-L5-01Mainboard Lantai 5 L5-RAD-02 Radiation 2 4.00 W/m²
2127 06/09/2026 14:13:00 MB-L3-01Mainboard Lantai 3 L3-HFT-02 Heat Flow Temperature 2 28.70 °C
2128 06/09/2026 14:13:00 MB-L5-01Mainboard Lantai 5 L5-ST-02 Surface Temperature 2 33.10 °C
2129 06/09/2026 14:13:00 MB-L5-01Mainboard Lantai 5 L5-AI-01 Analog Input 1 3.05 V
2130 06/09/2026 14:13:00 MB-L3-01Mainboard Lantai 3 L3-AI-06 Analog Input 6 3.12 V
2131 06/09/2026 14:13:00 WS-MOD-01Weather Station Module WS-WIND Kecepatan Angin 11.59 m/s
2132 06/09/2026 14:13:00 MB-L5-01Mainboard Lantai 5 L5-SHT-01-RH SHT20 1 Humidity 32.60 %RH
2133 06/09/2026 14:13:00 WS-MOD-01Weather Station Module WS-TEMP Suhu Udara 29.60 °C
2134 06/09/2026 14:13:00 MB-L5-01Mainboard Lantai 5 L5-BGT-03 Black Globe Temperature 3 29.10 °C
2135 06/09/2026 14:13:00 MB-L5-01Mainboard Lantai 5 L5-LUX-01 Illuminance / LUX 1 662.40 lux
2136 06/09/2026 14:13:00 WS-MOD-01Weather Station Module WS-RH Kelembapan Udara 42.70 %RH
2137 06/09/2026 14:13:00 WS-MOD-01Weather Station Module WS-PRES Tekanan Udara 908.00 hPa
2138 06/09/2026 14:13:00 MB-L5-01Mainboard Lantai 5 L5-SHT-01-T SHT20 1 Temperature 33.00 °C
2139 06/09/2026 14:13:00 MB-L5-01Mainboard Lantai 5 L5-BGT-01 Black Globe Temperature 1 30.30 °C
2140 06/09/2026 14:13:00 MB-L3-01Mainboard Lantai 3 L3-HFT-01 Heat Flow Temperature 1 29.40 °C
2141 06/09/2026 14:13:00 MB-L3-01Mainboard Lantai 3 L3-AI-05 Analog Input 5 3.12 V
2142 06/09/2026 14:13:00 MB-L5-01Mainboard Lantai 5 L5-SHT-02-T SHT20 2 Temperature 32.10 °C
2143 06/09/2026 14:13:00 WS-MOD-01Weather Station Module WS-DIR Arah Angin 284.90 °
2144 06/09/2026 14:12:00 MB-L3-01Mainboard Lantai 3 L3-BGT-02 Black Globe Temperature 2 29.60 °C
2145 06/09/2026 14:12:00 MB-L3-01Mainboard Lantai 3 L3-AI-03 Analog Input 3 3.12 V
2146 06/09/2026 14:12:00 MB-L5-01Mainboard Lantai 5 L5-SHT-03-RH SHT20 3 Humidity 32.90 %RH
2147 06/09/2026 14:12:00 MB-L5-01Mainboard Lantai 5 L5-ST-01 Surface Temperature 1 34.70 °C
2148 06/09/2026 14:12:00 MB-L5-01Mainboard Lantai 5 L5-BGT-02 Black Globe Temperature 2 29.80 °C
2149 06/09/2026 14:12:00 MB-L3-01Mainboard Lantai 3 L3-ST-01 Surface Temperature 1 30.80 °C
2150 06/09/2026 14:12:00 MB-L5-01Mainboard Lantai 5 L5-LUX-06 Illuminance / LUX 6 1,342.90 lux
2151 06/09/2026 14:12:00 MB-L3-01Mainboard Lantai 3 L3-AI-02 Analog Input 2 3.12 V
2152 06/09/2026 14:12:00 MB-L3-01Mainboard Lantai 3 L3-BGT-01 Black Globe Temperature 1 30.20 °C
2153 06/09/2026 14:12:00 MB-L5-01Mainboard Lantai 5 L5-AI-05 Analog Input 5 3.05 V
2154 06/09/2026 14:12:00 MB-L5-01Mainboard Lantai 5 L5-HFT-02 Heat Flow Temperature 2 30.50 °C
2155 06/09/2026 14:12:00 MB-L5-01Mainboard Lantai 5 L5-LUX-02 Illuminance / LUX 2 2,992.60 lux
2156 06/09/2026 14:12:00 MB-L5-01Mainboard Lantai 5 L5-LUX-03 Illuminance / LUX 3 1,258.90 lux
2157 06/09/2026 14:12:00 MB-L3-01Mainboard Lantai 3 L3-AI-01 Analog Input 1 3.12 V
2158 06/09/2026 14:12:00 MB-L5-01Mainboard Lantai 5 L5-RAD-01 Radiation 1 5.00 W/m²
2159 06/09/2026 14:12:00 MB-L5-01Mainboard Lantai 5 L5-AI-03 Analog Input 3 3.05 V
2160 06/09/2026 14:12:00 MB-L5-01Mainboard Lantai 5 L5-LUX-05 Illuminance / LUX 5 27,907.80 lux
2161 06/09/2026 14:12:00 MB-L5-01Mainboard Lantai 5 L5-LUX-04 Illuminance / LUX 4 894.10 lux
2162 06/09/2026 14:12:00 MB-L5-01Mainboard Lantai 5 L5-RAD-02 Radiation 2 4.00 W/m²
2163 06/09/2026 14:12:00 MB-L3-01Mainboard Lantai 3 L3-HFT-02 Heat Flow Temperature 2 30.70 °C
2164 06/09/2026 14:12:00 MB-L5-01Mainboard Lantai 5 L5-ST-02 Surface Temperature 2 33.60 °C
2165 06/09/2026 14:12:00 MB-L5-01Mainboard Lantai 5 L5-AI-01 Analog Input 1 3.05 V
2166 06/09/2026 14:12:00 MB-L3-01Mainboard Lantai 3 L3-AI-06 Analog Input 6 3.12 V
2167 06/09/2026 14:12:00 WS-MOD-01Weather Station Module WS-WIND Kecepatan Angin 8.36 m/s
2168 06/09/2026 14:12:00 MB-L5-01Mainboard Lantai 5 L5-SHT-01-RH SHT20 1 Humidity 32.10 %RH
2169 06/09/2026 14:12:00 WS-MOD-01Weather Station Module WS-TEMP Suhu Udara 29.50 °C
2170 06/09/2026 14:12:00 MB-L5-01Mainboard Lantai 5 L5-BGT-03 Black Globe Temperature 3 30.10 °C
2171 06/09/2026 14:12:00 MB-L5-01Mainboard Lantai 5 L5-LUX-01 Illuminance / LUX 1 633.20 lux
2172 06/09/2026 14:12:00 WS-MOD-01Weather Station Module WS-RH Kelembapan Udara 42.80 %RH
2173 06/09/2026 14:12:00 WS-MOD-01Weather Station Module WS-PRES Tekanan Udara 908.00 hPa
2174 06/09/2026 14:12:00 MB-L5-01Mainboard Lantai 5 L5-SHT-01-T SHT20 1 Temperature 33.20 °C
2175 06/09/2026 14:12:00 MB-L5-01Mainboard Lantai 5 L5-BGT-01 Black Globe Temperature 1 30.30 °C
2176 06/09/2026 14:12:00 MB-L3-01Mainboard Lantai 3 L3-HFT-01 Heat Flow Temperature 1 30.60 °C
2177 06/09/2026 14:12:00 MB-L3-01Mainboard Lantai 3 L3-AI-05 Analog Input 5 3.12 V
2178 06/09/2026 14:12:00 MB-L5-01Mainboard Lantai 5 L5-SHT-02-T SHT20 2 Temperature 32.10 °C
2179 06/09/2026 14:12:00 WS-MOD-01Weather Station Module WS-DIR Arah Angin 281.70 °
2180 06/09/2026 14:12:00 MB-L3-01Mainboard Lantai 3 L3-BGT-03 Black Globe Temperature 3 30.00 °C
2181 06/09/2026 14:12:00 MB-L5-01Mainboard Lantai 5 L5-AI-06 Analog Input 6 3.05 V
2182 06/09/2026 14:12:00 MB-L3-01Mainboard Lantai 3 L3-AI-04 Analog Input 4 3.12 V
2183 06/09/2026 14:12:00 MB-L3-01Mainboard Lantai 3 L3-ST-02 Surface Temperature 2 31.00 °C
2184 06/09/2026 14:12:00 MB-L5-01Mainboard Lantai 5 L5-AI-04 Analog Input 4 3.05 V
2185 06/09/2026 14:12:00 MB-L5-01Mainboard Lantai 5 L5-SHT-02-RH SHT20 2 Humidity 33.50 %RH
2186 06/09/2026 14:12:00 MB-L5-01Mainboard Lantai 5 L5-HFT-01 Heat Flow Temperature 1 40.70 °C
2187 06/09/2026 14:12:00 MB-L5-01Mainboard Lantai 5 L5-AI-02 Analog Input 2 3.05 V
2188 06/09/2026 14:12:00 MB-L5-01Mainboard Lantai 5 L5-SHT-03-T SHT20 3 Temperature 32.60 °C
2189 06/09/2026 14:11:00 MB-L5-01Mainboard Lantai 5 L5-LUX-06 Illuminance / LUX 6 1,341.00 lux
2190 06/09/2026 14:11:00 MB-L3-01Mainboard Lantai 3 L3-AI-02 Analog Input 2 3.12 V
2191 06/09/2026 14:11:00 MB-L3-01Mainboard Lantai 3 L3-BGT-01 Black Globe Temperature 1 29.60 °C
2192 06/09/2026 14:11:00 MB-L5-01Mainboard Lantai 5 L5-AI-05 Analog Input 5 3.05 V
2193 06/09/2026 14:11:00 MB-L5-01Mainboard Lantai 5 L5-HFT-02 Heat Flow Temperature 2 30.40 °C
2194 06/09/2026 14:11:00 MB-L5-01Mainboard Lantai 5 L5-LUX-02 Illuminance / LUX 2 2,970.80 lux
2195 06/09/2026 14:11:00 MB-L5-01Mainboard Lantai 5 L5-LUX-03 Illuminance / LUX 3 1,256.90 lux
2196 06/09/2026 14:11:00 MB-L3-01Mainboard Lantai 3 L3-AI-01 Analog Input 1 3.12 V
2197 06/09/2026 14:11:00 MB-L5-01Mainboard Lantai 5 L5-RAD-01 Radiation 1 6.00 W/m²
2198 06/09/2026 14:11:00 MB-L5-01Mainboard Lantai 5 L5-AI-03 Analog Input 3 3.05 V
2199 06/09/2026 14:11:00 MB-L5-01Mainboard Lantai 5 L5-LUX-05 Illuminance / LUX 5 28,387.60 lux
2200 06/09/2026 14:11:00 MB-L5-01Mainboard Lantai 5 L5-LUX-04 Illuminance / LUX 4 894.90 lux
Menampilkan maksimal 100 data per halaman